Time;durP1;ratioP1;P1;durP2;ratioP2;P2;SDS_P1;SDS_P2;PMS_P1;PMS_P2;Temp;Humidity;BMP_temperature;BMP_pressure;BME280_temperature;BME280_humidity;BME280_pressure;Samples;Min_cycle;Max_cycle;Signal;HPM_P1;HPM_P2
2023/07/18 00:01:25;;;;;;;13.05;11.60;;;;;;;22.52;57.77;94138.94;5074257;28;20118;-77
2023/07/18 00:03:50;;;;;;;12.52;11.07;;;;;;;22.44;57.89;94129.22;5077123;28;20101;-77
2023/07/18 00:06:18;;;;;;;14.82;11.68;;;;;;;22.42;58.30;94109.84;5075813;28;20035;-77
2023/07/18 00:08:44;;;;;;;12.95;11.43;;;;;;;22.45;58.03;94109.09;5071799;28;20230;-77
2023/07/18 00:11:09;;;;;;;11.77;10.57;;;;;;;22.41;58.03;94108.28;5059021;28;20028;-77
2023/07/18 00:13:35;;;;;;;12.52;11.15;;;;;;;22.52;58.37;94125.38;5076312;28;20040;-77
2023/07/18 00:16:01;;;;;;;12.00;10.10;;;;;;;22.34;58.27;94119.88;5077482;28;20059;-77
2023/07/18 00:18:26;;;;;;;12.77;11.35;;;;;;;22.44;58.33;94129.22;5078302;28;20085;-76
2023/07/18 00:20:51;;;;;;;12.85;11.52;;;;;;;22.34;58.67;94098.19;5076911;28;20036;-77
2023/07/18 00:23:17;;;;;;;13.25;11.40;;;;;;;22.43;58.22;94111.41;5074392;28;20458;-77
2023/07/18 00:25:42;;;;;;;12.23;10.95;;;;;;;22.36;58.52;94117.56;5076799;28;20040;-77
2023/07/18 00:28:09;;;;;;;13.43;11.13;;;;;;;22.23;58.67;94097.38;5077150;28;20508;-77
2023/07/18 00:30:34;;;;;;;11.95;10.70;;;;;;;22.28;58.63;94122.19;5076321;28;20044;-77
2023/07/18 00:33:00;;;;;;;12.73;10.80;;;;;;;22.23;58.97;94125.25;5074312;28;21417;-77
2023/07/18 00:35:27;;;;;;;12.38;11.13;;;;;;;22.22;58.97;94114.78;5073817;28;20034;-77
2023/07/18 00:37:53;;;;;;;11.90;10.70;;;;;;;22.21;58.89;94110.50;5072200;28;20023;-77
2023/07/18 00:40:18;;;;;;;13.27;11.75;;;;;;;22.16;58.69;94108.94;5076772;28;20036;-77
2023/07/18 00:42:47;;;;;;;13.98;12.18;;;;;;;22.25;58.94;94117.50;5075961;28;20063;-78
2023/07/18 00:45:14;;;;;;;14.45;12.95;;;;;;;22.12;59.05;94100.00;5075010;28;20123;-77
2023/07/18 00:47:41;;;;;;;13.88;11.73;;;;;;;22.12;58.54;94097.31;5076788;28;20649;-77
2023/07/18 00:50:08;;;;;;;14.15;11.95;;;;;;;22.22;59.05;94098.53;5078711;28;20058;-77
2023/07/18 00:52:43;;;;;;;15.55;12.02;;;;;;;22.26;58.28;94100.09;5075044;28;20040;-76
2023/07/18 00:55:10;;;;;;;14.50;11.80;;;;;;;22.22;58.26;94080.34;5074260;28;20032;-78
2023/07/18 00:57:40;;;;;;;13.85;12.30;;;;;;;22.24;58.07;94085.41;5076971;28;20396;-76
2023/07/18 01:00:09;;;;;;;14.23;12.75;;;;;;;22.25;58.08;94087.72;5057582;28;20032;-76
2023/07/18 01:02:36;;;;;;;12.77;11.57;;;;;;;22.27;57.90;94085.41;5058513;28;20020;-77
2023/07/18 01:05:01;;;;;;;26.55;12.82;;;;;;;22.24;57.71;94086.16;5075141;28;20040;-77
2023/07/18 01:07:27;;;;;;;16.25;12.93;;;;;;;22.15;57.82;94069.44;5075630;28;20044;-78
2023/07/18 01:09:53;;;;;;;15.63;12.95;;;;;;;22.26;57.79;94067.59;5074820;28;20713;-76
2023/07/18 01:12:19;;;;;;;14.32;12.98;;;;;;;22.24;57.37;94063.72;5074270;28;20464;-77
2023/07/18 01:14:45;;;;;;;12.95;11.38;;;;;;;22.25;57.90;94079.59;5075775;28;20040;-78
2023/07/18 01:17:11;;;;;;;13.98;12.38;;;;;;;21.89;58.70;94045.34;5076894;28;20024;-77
2023/07/18 01:19:37;;;;;;;13.80;12.43;;;;;;;22.08;59.26;94072.13;5073216;28;20039;-77
2023/07/18 01:22:02;;;;;;;14.27;12.88;;;;;;;22.16;58.88;94084.53;5057325;28;20497;-77
2023/07/18 01:24:28;;;;;;;14.95;13.43;;;;;;;22.06;58.90;94082.56;5074707;28;20115;-77
2023/07/18 01:26:54;;;;;;;14.73;13.10;;;;;;;22.07;58.88;94077.91;5077191;28;20399;-77
2023/07/18 01:29:20;;;;;;;14.30;12.80;;;;;;;22.00;59.61;94094.91;5074543;28;20029;-77
2023/07/18 01:31:45;;;;;;;15.85;12.70;;;;;;;21.83;60.04;94079.34;5077317;28;20036;-77
2023/07/18 01:34:14;;;;;;;14.27;12.80;;;;;;;21.85;60.03;94088.63;5056804;28;20498;-77
2023/07/18 01:36:40;;;;;;;13.48;12.07;;;;;;;21.84;60.15;94102.56;5075453;28;20039;-77
2023/07/18 01:39:06;;;;;;;15.68;13.80;;;;;;;21.78;60.15;94093.22;5074552;28;20024;-77
2023/07/18 01:41:31;;;;;;;18.17;12.93;;;;;;;21.82;60.27;94094.81;5074007;28;20044;-78
2023/07/18 01:43:56;;;;;;;15.40;13.35;;;;;;;21.77;60.60;94089.75;5073597;28;20025;-77
2023/07/18 01:46:23;;;;;;;14.70;13.20;;;;;;;21.74;60.50;94081.59;5075771;28;20051;-76
2023/07/18 01:48:48;;;;;;;13.75;12.35;;;;;;;21.66;60.72;94077.28;5073253;28;20493;-77
2023/07/18 01:51:14;;;;;;;13.23;11.48;;;;;;;21.69;61.05;94090.09;5074404;28;20483;-77
2023/07/18 01:53:39;;;;;;;18.50;13.38;;;;;;;21.60;61.44;94084.22;5071931;28;20376;-77
2023/07/18 01:56:06;;;;;;;16.55;13.52;;;;;;;21.71;61.03;94093.16;5075508;28;20081;-78
2023/07/18 01:58:31;;;;;;;14.27;12.85;;;;;;;21.61;61.05;94083.06;5057875;28;20437;-77
2023/07/18 02:00:56;;;;;;;13.75;12.40;;;;;;;21.65;60.47;94078.47;5073505;28;20040;-78
2023/07/18 02:03:22;;;;;;;16.23;12.32;;;;;;;21.62;60.50;94081.91;5055900;28;20029;-78
2023/07/18 02:05:47;;;;;;;14.32;12.65;;;;;;;21.53;61.12;94078.72;5072508;28;20043;-77
2023/07/18 02:08:13;;;;;;;14.98;13.48;;;;;;;21.59;60.91;94096.97;5056414;28;20020;-77
2023/07/18 02:10:38;;;;;;;14.82;13.02;;;;;;;21.51;60.86;94084.50;5072696;28;20530;-76
2023/07/18 02:13:03;;;;;;;13.65;12.18;;;;;;;21.43;62.00;94094.50;5055605;28;20187;-77
2023/07/18 02:15:29;;;;;;;15.00;12.85;;;;;;;21.33;62.15;94095.19;5055609;28;20091;-80
2023/07/18 02:17:54;;;;;;;14.77;12.73;;;;;;;20.99;62.84;94066.69;5073184;28;20396;-79
2023/07/18 02:20:20;;;;;;;15.18;13.23;;;;;;;21.24;62.73;94096.66;5073322;28;20028;-78
2023/07/18 02:22:47;;;;;;;14.48;12.98;;;;;;;21.17;63.16;94094.66;5074697;28;20104;-78
2023/07/18 02:25:17;;;;;;;13.95;11.98;;;;;;;21.10;63.07;94086.50;5071665;28;20101;-76
2023/07/18 02:27:43;;;;;;;15.10;13.52;;;;;;;21.13;62.78;94085.72;5073666;28;20037;-77
2023/07/18 02:30:13;;;;;;;14.20;12.80;;;;;;;21.19;62.72;94103.19;5054316;28;20512;-78
2023/07/18 02:32:39;;;;;;;16.95;13.60;;;;;;;21.06;63.25;94091.09;5070668;28;20032;-77
2023/07/18 02:35:06;;;;;;;14.73;13.07;;;;;;;21.08;62.78;94088.78;5075258;28;20241;-77
2023/07/18 02:37:31;;;;;;;15.63;13.25;;;;;;;21.04;62.85;94085.28;5073960;28;20036;-76
2023/07/18 02:39:57;;;;;;;14.73;13.02;;;;;;;21.05;63.32;94103.06;5077203;28;20085;-78
2023/07/18 02:42:22;;;;;;;15.98;14.13;;;;;;;21.02;63.37;94109.22;5072670;28;20622;-77
2023/07/18 02:44:48;;;;;;;13.80;12.50;;;;;;;20.94;63.88;94111.06;5076553;28;20564;-77
2023/07/18 02:47:14;;;;;;;13.90;12.50;;;;;;;20.88;64.01;94104.44;5035632;28;1189385;-77
2023/07/18 02:49:40;;;;;;;14.60;13.10;;;;;;;20.91;64.02;94113.72;5079890;28;20044;-77
2023/07/18 02:52:06;;;;;;;15.00;13.40;;;;;;;20.92;63.83;94109.88;5076013;28;20153;-78
2023/07/18 02:54:32;;;;;;;16.67;13.60;;;;;;;20.97;63.63;94109.56;5060190;28;20055;-76
2023/07/18 02:56:58;;;;;;;15.30;13.77;;;;;;;20.82;63.73;94081.56;5078198;28;20040;-76
2023/07/18 02:59:24;;;;;;;14.48;12.95;;;;;;;20.90;63.78;94101.38;5077910;28;20089;-77
2023/07/18 03:01:50;;;;;;;15.65;13.65;;;;;;;20.91;63.22;94097.50;5077624;28;20035;-77
2023/07/18 03:04:18;;;;;;;13.65;12.25;;;;;;;20.97;62.99;94101.44;5062387;28;20495;-78
2023/07/18 03:06:47;;;;;;;16.60;13.38;;;;;;;20.86;63.13;94087.00;5078096;28;20036;-77
2023/07/18 03:09:16;;;;;;;16.85;12.93;;;;;;;21.01;63.03;94099.53;5079921;28;20430;-77
2023/07/18 03:11:42;;;;;;;18.15;12.82;;;;;;;20.97;63.06;94101.44;5075543;28;20031;-77
2023/07/18 03:14:08;;;;;;;13.57;12.18;;;;;;;20.92;63.39;94104.47;5076651;28;20122;-77
2023/07/18 03:16:34;;;;;;;15.57;13.55;;;;;;;20.80;63.80;94100.06;5079346;28;20052;-77
2023/07/18 03:18:59;;;;;;;14.25;12.75;;;;;;;20.86;63.65;94103.22;5077741;28;20065;-77
2023/07/18 03:21:25;;;;;;;14.93;13.43;;;;;;;20.84;63.64;94100.09;5079567;28;20460;-76
2023/07/18 03:23:53;;;;;;;18.55;13.85;;;;;;;20.72;63.60;94086.88;5075910;28;20123;-77
2023/07/18 03:26:19;;;;;;;16.55;13.10;;;;;;;20.82;63.46;94110.53;5077024;28;20585;-77
2023/07/18 03:28:44;;;;;;;18.00;13.70;;;;;;;20.79;63.47;94103.13;5060648;28;20044;-77
2023/07/18 03:31:09;;;;;;;17.35;13.10;;;;;;;20.65;63.94;94078.66;5076753;28;20043;-78
2023/07/18 03:33:35;;;;;;;14.20;12.43;;;;;;;20.82;63.86;94102.41;5060650;28;21108;-77
2023/07/18 03:36:01;;;;;;;17.40;12.07;;;;;;;20.60;64.08;94096.00;5076722;28;20055;-78
2023/07/18 03:38:27;;;;;;;16.42;12.75;;;;;;;20.68;64.30;94102.28;5076908;28;20024;-77
2023/07/18 03:40:53;;;;;;;16.73;12.45;;;;;;;20.74;64.53;94114.28;5077078;28;20112;-77
2023/07/18 03:43:18;;;;;;;18.90;13.18;;;;;;;20.74;64.77;94120.47;5077253;28;20027;-77
2023/07/18 03:45:43;;;;;;;19.58;14.27;;;;;;;20.63;65.16;94108.75;5074440;28;20063;-76
2023/07/18 03:48:09;;;;;;;16.88;13.35;;;;;;;20.71;65.26;94118.50;5060156;28;20044;-75
2023/07/18 03:50:34;;;;;;;21.02;14.48;;;;;;;20.73;65.84;94137.81;5061585;28;20042;-74
2023/07/18 03:52:59;;;;;;;16.73;13.68;;;;;;;20.65;66.45;94130.00;5060438;28;20648;-75
2023/07/18 03:55:25;;;;;;;16.83;14.48;;;;;;;20.79;66.07;94143.69;5077475;28;20036;-77
2023/07/18 03:57:51;;;;;;;16.88;14.65;;;;;;;20.79;66.36;94146.38;5075422;28;20181;-78
2023/07/18 04:00:17;;;;;;;16.45;14.43;;;;;;;20.80;66.78;94145.25;5075255;28;20055;-78
2023/07/18 04:02:45;;;;;;;21.33;15.38;;;;;;;20.98;66.85;94165.16;5075858;28;20902;-77
2023/07/18 04:05:13;;;;;;;16.55;14.77;;;;;;;21.07;65.90;94164.88;5076783;28;20020;-77
2023/07/18 04:07:39;;;;;;;17.83;14.98;;;;;;;21.07;65.60;94151.38;5075650;28;20465;-77
2023/07/18 04:10:05;;;;;;;17.73;15.25;;;;;;;21.10;65.36;94151.41;5075032;28;20040;-78
2023/07/18 04:12:30;;;;;;;20.08;16.00;;;;;;;21.25;65.33;94158.50;5075998;28;20028;-77
2023/07/18 04:14:55;;;;;;;17.27;14.35;;;;;;;21.30;65.11;94151.97;5076808;28;20048;-77
2023/07/18 04:17:22;;;;;;;18.52;15.25;;;;;;;21.44;64.94;94158.28;5059270;28;20108;-78
2023/07/18 04:19:48;;;;;;;24.85;16.83;;;;;;;21.49;64.29;94154.47;5075784;28;20075;-77
2023/07/18 04:22:14;;;;;;;20.17;16.58;;;;;;;21.55;64.05;94160.34;5075701;28;20529;-79
2023/07/18 04:24:39;;;;;;;19.38;15.98;;;;;;;21.60;64.55;94147.25;5078149;28;20406;-78
2023/07/18 04:27:05;;;;;;;20.55;16.45;;;;;;;21.69;63.80;94149.63;5073831;28;20032;-78
2023/07/18 04:29:30;;;;;;;20.35;17.85;;;;;;;21.76;64.08;94147.75;5057687;28;20456;-79
2023/07/18 04:31:55;;;;;;;21.30;15.80;;;;;;;21.80;63.62;94145.06;5075217;28;20028;-79
2023/07/18 04:34:21;;;;;;;19.20;17.05;;;;;;;21.76;62.74;94133.41;5076488;28;20652;-77
2023/07/18 04:36:46;;;;;;;17.70;15.70;;;;;;;21.87;62.30;94147.81;5078059;28;20047;-77
2023/07/18 04:39:12;;;;;;;25.25;16.88;;;;;;;21.94;62.31;94142.47;5075624;28;20621;-76
2023/07/18 04:41:37;;;;;;;18.83;16.50;;;;;;;21.93;62.26;94121.19;5075800;28;20099;-77
2023/07/18 04:44:03;;;;;;;18.52;15.80;;;;;;;21.98;61.96;94131.66;5073898;28;20051;-77
2023/07/18 04:46:29;;;;;;;29.00;16.25;;;;;;;22.00;61.64;94127.41;5075073;28;20452;-76
2023/07/18 04:48:54;;;;;;;27.48;15.88;;;;;;;22.13;62.19;94139.50;5075221;28;20044;-78
2023/07/18 04:51:20;;;;;;;19.15;17.05;;;;;;;22.20;61.96;94144.16;5077774;28;20029;-78
2023/07/18 04:53:45;;;;;;;17.98;16.17;;;;;;;22.24;61.26;94132.22;5075291;28;20068;-77
2023/07/18 04:56:11;;;;;;;20.38;17.83;;;;;;;22.25;61.29;94119.44;5076732;28;20321;-76
2023/07/18 04:58:38;;;;;;;20.15;15.05;;;;;;;22.35;61.44;94126.06;5075196;28;20545;-78
2023/07/18 05:01:04;;;;;;;17.50;15.65;;;;;;;22.35;61.12;94115.22;5074497;28;20078;-77
2023/07/18 05:03:29;;;;;;;20.38;16.70;;;;;;;22.43;60.86;94127.66;5074112;28;20040;-77
2023/07/18 05:05:56;;;;;;;25.88;17.63;;;;;;;22.49;60.73;94123.41;5077342;28;20065;-79
2023/07/18 05:08:22;;;;;;;27.48;17.73;;;;;;;22.43;60.82;94114.13;5075186;28;20032;-76
2023/07/18 05:10:47;;;;;;;24.88;16.77;;;;;;;22.58;62.63;94130.06;5057974;28;20177;-78
2023/07/18 05:13:13;;;;;;;23.98;18.20;;;;;;;22.71;63.03;94133.19;5074074;28;20126;-78
2023/07/18 05:15:41;;;;;;;27.15;18.52;;;;;;;22.82;62.42;94134.03;5075142;28;20101;-78
2023/07/18 05:18:07;;;;;;;23.65;17.33;;;;;;;22.81;61.40;94127.03;5074012;28;20105;-77
2023/07/18 05:20:32;;;;;;;21.23;16.95;;;;;;;22.79;62.27;94121.22;5076270;28;20476;-78
2023/07/18 05:22:58;;;;;;;26.80;17.38;;;;;;;22.87;62.18;94125.53;5073741;28;20920;-77
2023/07/18 05:25:24;;;;;;;26.70;17.35;;;;;;;23.02;61.51;94131.78;5075044;28;20040;-78
2023/07/18 05:27:49;;;;;;;20.88;16.88;;;;;;;22.95;60.96;94127.09;5073815;28;20067;-77
2023/07/18 05:30:16;;;;;;;25.38;17.52;;;;;;;22.96;61.44;94123.25;5075149;28;20060;-77
2023/07/18 05:32:43;;;;;;;22.25;19.63;;;;;;;23.17;61.82;94123.25;5057275;28;20040;-77
2023/07/18 05:35:13;;;;;;;23.52;18.10;;;;;;;23.29;61.73;94121.34;5077082;28;20023;-75
2023/07/18 05:37:43;;;;;;;26.65;18.35;;;;;;;23.28;60.54;94106.22;5071888;28;20786;-77
2023/07/18 05:40:10;;;;;;;29.77;19.92;;;;;;;23.53;59.49;94137.69;5075553;28;20128;-79
2023/07/18 05:42:36;;;;;;;23.40;19.08;;;;;;;23.48;59.67;94123.69;5054298;28;20043;-77
2023/07/18 05:45:02;;;;;;;23.50;18.67;;;;;;;23.69;59.31;94137.31;5076880;28;20078;-77
2023/07/18 05:47:28;;;;;;;24.15;17.20;;;;;;;23.69;59.82;94125.66;5072383;28;20074;-77
2023/07/18 05:49:53;;;;;;;23.98;19.60;;;;;;;23.83;59.19;94141.94;5077527;28;20123;-77
2023/07/18 05:52:18;;;;;;;26.45;20.23;;;;;;;23.93;59.35;94147.38;5071548;28;20087;-78
2023/07/18 05:54:45;;;;;;;25.83;19.50;;;;;;;24.02;59.46;94146.97;5074412;28;20075;-77
2023/07/18 05:57:10;;;;;;;27.00;20.08;;;;;;;24.14;58.88;94140.41;5057090;28;20063;-78
2023/07/18 05:59:36;;;;;;;25.35;19.40;;;;;;;24.20;58.59;94130.69;5074337;28;20032;-77
2023/07/18 06:02:04;;;;;;;26.35;18.75;;;;;;;24.20;58.24;94125.25;5073166;28;20494;-77
2023/07/18 06:04:29;;;;;;;26.42;19.58;;;;;;;24.30;57.23;94122.47;5074373;28;20575;-77
2023/07/18 06:06:55;;;;;;;21.83;18.65;;;;;;;24.36;57.58;94125.56;5055487;28;20044;-76
2023/07/18 06:09:20;;;;;;;21.17;18.65;;;;;;;24.49;57.45;94124.00;5074861;28;20123;-77
2023/07/18 06:11:46;;;;;;;23.65;18.85;;;;;;;24.60;56.54;94119.25;5077430;28;20480;-76
2023/07/18 06:14:11;;;;;;;19.52;17.10;;;;;;;24.69;56.83;94125.06;5081297;28;20028;-77
2023/07/18 06:16:37;;;;;;;21.13;18.58;;;;;;;24.78;56.37;94117.28;5078089;28;20570;-76
2023/07/18 06:19:02;;;;;;;20.50;18.40;;;;;;;24.74;55.37;94113.78;5078739;28;20177;-76
2023/07/18 06:21:27;;;;;;;22.80;17.80;;;;;;;24.74;54.64;94113.78;5077343;28;20040;-76
2023/07/18 06:23:53;;;;;;;23.35;19.45;;;;;;;24.87;55.43;94132.41;5061275;28;20051;-77
2023/07/18 06:26:19;;;;;;;18.10;16.27;;;;;;;24.96;55.59;94133.53;5078153;28;20027;-76
2023/07/18 06:28:45;;;;;;;21.42;19.08;;;;;;;24.59;56.19;94074.22;5079302;28;20035;-76
2023/07/18 06:31:10;;;;;;;23.70;19.30;;;;;;;25.00;55.19;94123.38;5078890;28;20071;-77
2023/07/18 06:33:36;;;;;;;22.50;18.92;;;;;;;24.98;54.06;94138.56;5079334;28;20055;-75
2023/07/18 06:36:01;;;;;;;19.38;16.80;;;;;;;24.95;55.00;94128.47;5077757;28;20048;-77
2023/07/18 06:38:26;;;;;;;25.58;17.70;;;;;;;24.97;53.96;94121.47;5063360;28;20027;-76
2023/07/18 06:40:52;;;;;;;20.92;16.30;;;;;;;25.10;54.10;94124.50;5080242;28;20048;-78
2023/07/18 06:43:18;;;;;;;20.50;17.50;;;;;;;25.22;55.84;94137.66;5078627;28;20042;-77
2023/07/18 06:45:45;;;;;;;23.02;17.13;;;;;;;25.19;52.90;94138.44;5059958;28;20032;-77
2023/07/18 06:48:11;;;;;;;26.58;18.70;;;;;;;25.25;54.40;94125.97;5063277;28;20047;-75
2023/07/18 06:50:37;;;;;;;25.83;18.77;;;;;;;25.37;54.41;94136.41;5077133;28;20595;-77
2023/07/18 06:53:03;;;;;;;23.75;18.33;;;;;;;25.34;53.78;94137.19;5078355;28;20027;-77
2023/07/18 06:55:28;;;;;;;19.70;17.38;;;;;;;25.36;54.48;94123.97;5077893;28;20339;-78
2023/07/18 06:57:53;;;;;;;24.25;18.63;;;;;;;25.44;54.09;94139.06;5075869;28;20036;-77
2023/07/18 07:00:20;;;;;;;21.13;18.30;;;;;;;25.43;53.80;94137.53;5079268;28;20339;-78
2023/07/18 07:02:45;;;;;;;29.38;17.02;;;;;;;25.40;55.10;94132.88;5057226;28;20596;-77
2023/07/18 07:05:11;;;;;;;26.23;19.58;;;;;;;25.45;55.54;94135.19;5079904;28;20025;-77
2023/07/18 07:07:37;;;;;;;28.80;18.40;;;;;;;25.48;55.28;94136.31;5075187;28;20039;-77
2023/07/18 07:10:02;;;;;;;25.88;19.73;;;;;;;25.51;56.00;94132.81;5077897;28;20056;-78
2023/07/18 07:12:30;;;;;;;31.10;19.00;;;;;;;25.56;55.91;94133.16;5075338;28;20076;-78
2023/07/18 07:14:55;;;;;;;20.25;17.75;;;;;;;25.67;56.75;94131.13;5077853;28;20037;-77
2023/07/18 07:17:21;;;;;;;25.35;19.23;;;;;;;25.73;55.77;94138.84;5076697;28;20089;-77
2023/07/18 07:19:46;;;;;;;24.50;19.13;;;;;;;25.83;56.52;94132.53;5058917;28;20648;-77
2023/07/18 07:22:13;;;;;;;22.45;17.17;;;;;;;25.84;55.05;94134.09;5076081;28;20525;-77
2023/07/18 07:24:38;;;;;;;24.38;18.27;;;;;;;25.82;56.25;94136.44;5077385;28;20033;-76
2023/07/18 07:27:05;;;;;;;22.08;17.80;;;;;;;25.81;55.20;94129.47;5076513;28;20032;-76
2023/07/18 07:29:30;;;;;;;19.15;17.17;;;;;;;25.87;54.98;94128.63;5077087;28;20035;-76
2023/07/18 07:31:56;;;;;;;21.13;18.15;;;;;;;25.87;54.19;94131.34;5078613;28;20024;-76
2023/07/18 07:34:21;;;;;;;20.85;18.27;;;;;;;25.83;54.80;94121.66;5077615;28;20522;-77
2023/07/18 07:36:47;;;;;;;20.65;18.55;;;;;;;25.96;54.43;94137.13;5077197;28;20032;-77
2023/07/18 07:39:13;;;;;;;20.95;17.63;;;;;;;25.95;55.05;94132.88;5076509;28;20032;-77
2023/07/18 07:41:38;;;;;;;24.90;18.73;;;;;;;26.08;54.62;94149.47;5055910;28;20429;-77
2023/07/18 07:44:04;;;;;;;21.80;17.75;;;;;;;26.06;54.13;94132.75;5059669;28;20030;-76
2023/07/18 07:46:29;;;;;;;23.05;19.35;;;;;;;26.09;54.61;94134.69;5058551;28;20044;-78
2023/07/18 07:48:55;;;;;;;19.90;16.65;;;;;;;26.17;55.19;94136.16;5072073;28;20288;-78
2023/07/18 07:51:22;;;;;;;19.83;16.50;;;;;;;26.17;53.09;94146.28;5057555;28;20036;-77
2023/07/18 07:53:47;;;;;;;20.77;17.08;;;;;;;26.17;51.91;94140.81;5055613;28;20122;-77
2023/07/18 07:56:12;;;;;;;17.98;15.68;;;;;;;26.27;52.45;94146.19;5057276;28;20111;-76
2023/07/18 07:58:38;;;;;;;23.58;17.55;;;;;;;26.29;53.59;94127.47;5055301;28;20041;-77
2023/07/18 08:01:03;;;;;;;22.65;15.88;;;;;;;26.40;52.58;94139.03;5054734;28;20036;-76
2023/07/18 08:03:29;;;;;;;22.38;16.92;;;;;;;26.40;52.94;94139.03;5057865;28;20098;-78
2023/07/18 08:05:55;;;;;;;19.67;17.85;;;;;;;26.45;52.06;94145.97;5056827;28;20108;-78
2023/07/18 08:08:20;;;;;;;19.98;16.85;;;;;;;26.48;51.82;94143.28;5057721;28;20404;-77
2023/07/18 08:10:45;;;;;;;18.90;16.48;;;;;;;26.44;51.98;94139.78;5054040;28;20068;-78
2023/07/18 08:13:11;;;;;;;19.10;15.68;;;;;;;26.34;50.59;94134.44;5056804;28;20045;-78
2023/07/18 08:15:37;;;;;;;17.83;16.05;;;;;;;26.49;52.20;94146.78;5054969;28;20117;-77
2023/07/18 08:18:02;;;;;;;21.70;18.27;;;;;;;26.50;52.42;94143.63;5056549;28;20484;-78
2023/07/18 08:20:28;;;;;;;22.00;17.23;;;;;;;26.46;52.97;94137.44;5054789;28;20804;-77
2023/07/18 08:22:54;;;;;;;18.67;16.75;;;;;;;26.59;51.41;94145.09;5056999;28;20502;-77
2023/07/18 08:25:20;;;;;;;18.00;16.10;;;;;;;26.51;52.02;94128.81;5055416;28;20036;-78
2023/07/18 08:27:45;;;;;;;16.40;14.45;;;;;;;26.55;50.38;94145.91;5056002;28;20040;-77
2023/07/18 08:30:11;;;;;;;18.17;16.27;;;;;;;26.58;50.90;94132.63;5055454;28;20036;-77
2023/07/18 08:32:37;;;;;;;17.48;15.77;;;;;;;26.65;50.71;94141.50;5055000;28;20165;-78
2023/07/18 08:35:05;;;;;;;17.85;15.77;;;;;;;26.66;50.17;94134.09;5057855;28;20035;-78
2023/07/18 08:37:30;;;;;;;18.02;15.48;;;;;;;26.79;51.65;94143.31;5055417;28;20238;-77
2023/07/18 08:39:55;;;;;;;17.13;15.10;;;;;;;26.75;50.97;94120.72;5057526;28;20450;-78
2023/07/18 08:42:25;;;;;;;20.73;16.45;;;;;;;26.86;49.79;94137.75;5052787;28;20352;-77
2023/07/18 08:44:53;;;;;;;20.15;16.60;;;;;;;26.95;49.47;94133.34;5056593;28;20040;-77
2023/07/18 08:47:21;;;;;;;19.05;15.68;;;;;;;26.98;47.87;94129.03;5054591;28;20113;-77
2023/07/18 08:49:46;;;;;;;17.65;15.93;;;;;;;26.94;48.73;94134.50;5076431;28;20051;-77
2023/07/18 08:52:12;;;;;;;17.42;15.52;;;;;;;27.10;48.80;94131.22;5073192;28;20032;-77
2023/07/18 08:54:37;;;;;;;18.38;16.50;;;;;;;27.12;48.76;94134.31;5074318;28;20440;-78
2023/07/18 08:57:03;;;;;;;18.27;15.93;;;;;;;27.22;48.53;94138.09;5075680;28;20185;-75
2023/07/18 08:59:29;;;;;;;17.85;16.15;;;;;;;27.18;47.99;94131.91;5075361;28;20605;-77
2023/07/18 09:01:54;;;;;;;19.00;17.10;;;;;;;27.12;47.65;94128.88;5073576;28;20111;-79
2023/07/18 09:04:21;;;;;;;19.70;17.63;;;;;;;27.15;48.53;94128.03;5074433;28;20048;-78
2023/07/18 09:06:57;;;;;;;19.20;16.60;;;;;;;27.34;48.81;94132.81;5076019;28;20040;-78
2023/07/18 09:09:23;;;;;;;20.05;17.40;;;;;;;27.25;48.08;94140.75;5075705;28;20255;-77
2023/07/18 09:12:03;;;;;;;19.23;17.42;;;;;;;27.26;47.87;94134.13;5073823;28;20032;-78
2023/07/18 09:14:30;;;;;;;20.40;18.30;;;;;;;27.22;47.51;94127.94;5056034;28;20039;-79
2023/07/18 09:16:59;;;;;;;23.75;18.08;;;;;;;27.31;47.72;94128.19;5075825;28;20020;-78
2023/07/18 09:19:45;;;;;;;20.98;17.85;;;;;;;27.17;47.00;94119.44;5078390;28;20163;-77
2023/07/18 09:22:13;;;;;;;18.35;16.40;;;;;;;27.20;47.44;94127.56;5075531;28;20380;-78
2023/07/18 09:24:40;;;;;;;18.77;16.75;;;;;;;27.30;48.06;94125.88;5075474;28;20028;-77
2023/07/18 09:27:17;;;;;;;18.98;17.02;;;;;;;27.38;48.17;94132.75;5076150;28;20035;-77
2023/07/18 09:29:46;;;;;;;19.02;16.52;;;;;;;27.33;47.89;94125.03;5073607;28;20609;-77
2023/07/18 09:32:17;;;;;;;17.88;15.98;;;;;;;27.39;48.71;94132.38;5059151;28;20028;-77
2023/07/18 09:34:52;;;;;;;19.88;17.52;;;;;;;27.31;47.93;94114.53;5075296;28;20044;-76
2023/07/18 09:37:17;;;;;;;20.48;18.10;;;;;;;27.30;48.63;94126.66;5057423;28;20040;-78
2023/07/18 09:39:43;;;;;;;20.40;18.40;;;;;;;27.18;48.26;94126.44;5057164;28;20121;-78
2023/07/18 09:42:10;;;;;;;21.10;18.88;;;;;;;27.19;48.50;94117.81;5075446;28;20054;-78
2023/07/18 09:44:37;;;;;;;21.40;19.27;;;;;;;27.19;48.92;94123.28;5071906;28;20039;-75
2023/07/18 09:47:04;;;;;;;24.30;19.35;;;;;;;27.25;48.50;94124.38;5075614;28;20024;-74
2023/07/18 09:49:30;;;;;;;23.15;19.73;;;;;;;27.26;47.95;94125.94;5073447;28;20031;-74
2023/07/18 09:52:03;;;;;;;21.23;19.02;;;;;;;27.19;47.97;94092.47;5075446;28;20039;-77
2023/07/18 09:54:30;;;;;;;21.17;19.05;;;;;;;27.46;48.25;94117.84;5074058;28;20058;-77
2023/07/18 09:57:01;;;;;;;20.65;18.67;;;;;;;27.55;48.16;94112.63;5075576;28;20028;-78
2023/07/18 09:59:28;;;;;;;21.25;19.25;;;;;;;27.59;48.20;94107.13;5076521;28;20020;-78
2023/07/18 10:01:55;;;;;;;21.38;19.08;;;;;;;27.62;47.88;94106.31;5075869;28;20055;-79
2023/07/18 10:04:21;;;;;;;20.17;18.02;;;;;;;27.67;48.22;94095.66;5060142;28;20478;-78
2023/07/18 10:06:47;;;;;;;18.17;16.38;;;;;;;27.60;47.94;94084.09;5075604;28;20300;-78
2023/07/18 10:09:13;;;;;;;17.70;15.93;;;;;;;27.67;47.81;94092.16;5075902;28;20097;-77
2023/07/18 10:11:57;;;;;;;19.42;16.65;;;;;;;27.74;48.65;94102.97;5075122;28;20119;-78
2023/07/18 10:14:27;;;;;;;19.73;17.63;;;;;;;27.84;47.09;94102.03;5076507;28;20039;-77
2023/07/18 10:16:59;;;;;;;15.02;13.35;;;;;;;27.82;46.15;94098.91;5076443;28;20043;-77
2023/07/18 10:19:25;;;;;;;15.02;12.60;;;;;;;27.88;44.27;94094.53;5075448;28;20035;-76
2023/07/18 10:21:56;;;;;;;16.48;13.13;;;;;;;27.91;44.17;94099.19;5058366;28;20591;-77
2023/07/18 10:24:24;;;;;;;14.75;13.20;;;;;;;28.01;44.84;94106.41;5076448;28;20245;-78
2023/07/18 10:26:57;;;;;;;15.90;13.15;;;;;;;28.06;44.75;94105.91;5071960;28;20043;-77
2023/07/18 10:29:23;;;;;;;15.88;13.88;;;;;;;28.00;45.90;94095.91;5075213;28;20028;-77
2023/07/18 10:31:48;;;;;;;17.27;13.57;;;;;;;28.02;44.34;94097.00;5076105;28;20032;-75
2023/07/18 10:34:18;;;;;;;16.20;13.20;;;;;;;28.08;45.46;94103.53;5058844;28;20040;-77
2023/07/18 10:36:57;;;;;;;14.90;13.30;;;;;;;28.02;44.29;94097.00;5058939;28;20043;-78
2023/07/18 10:39:38;;;;;;;15.38;12.88;;;;;;;28.01;43.55;94100.19;5074202;28;20070;-78
2023/07/18 10:42:08;;;;;;;12.95;11.68;;;;;;;28.09;43.09;94098.84;5075394;28;20112;-78
2023/07/18 10:44:38;;;;;;;16.60;11.88;;;;;;;28.12;41.98;94100.78;5056645;28;20036;-76
2023/07/18 10:47:31;;;;;;;12.30;10.27;;;;;;;28.03;40.70;94093.09;5075544;28;20031;-77
2023/07/18 10:49:57;;;;;;;11.23;9.57;;;;;;;27.93;40.79;94083.13;5073541;28;20047;-78
2023/07/18 10:52:22;;;;;;;10.23;9.05;;;;;;;28.06;41.13;94092.25;5074806;28;20041;-77
2023/07/18 10:54:50;;;;;;;14.63;7.55;;;;;;;28.18;39.86;94102.63;5074643;28;20043;-77
2023/07/18 10:57:16;;;;;;;17.73;7.45;;;;;;;28.12;39.83;94093.34;5077488;28;20044;-76
2023/07/18 10:59:45;;;;;;;8.30;6.43;;;;;;;28.20;38.99;94092.03;5078251;28;20721;-76
2023/07/18 11:02:12;;;;;;;13.77;8.77;;;;;;;28.23;37.87;94088.47;5079026;28;20023;-76
2023/07/18 11:04:37;;;;;;;13.68;6.85;;;;;;;28.16;38.34;94106.94;5078582;28;20099;-76
2023/07/18 11:07:03;;;;;;;11.85;5.80;;;;;;;28.13;37.11;94103.09;5078355;28;20394;-76
2023/07/18 11:09:28;;;;;;;8.18;4.82;;;;;;;28.19;36.74;94098.69;5078719;28;20048;-76
2023/07/18 11:11:54;;;;;;;11.82;5.70;;;;;;;28.39;36.21;94103.41;5076875;28;20583;-77
2023/07/18 11:14:21;;;;;;;6.05;5.38;;;;;;;28.42;35.79;94091.63;5061176;28;20036;-78